Terminal Aerodrome Forecast
Issued by NWS Wakefield, VA

Home | Current Version | Previous Version | Text Only | Print | Product List | Glossary On
Versions: 1 2 3 4 5 6 7 8 9 10 11 12 13 14 15 16 17 18 19 20 21 22 23 24 25 26 27 28 29
464
FTUS41 KAKQ 011742 RRA
TAFORF
TAF
KORF 011742Z 0118/0218 04008KT P6SM BKN025 BKN040
      TEMPO 0118/0122 SCT030 BKN100
     FM012200 16007KT P6SM BKN035
     FM020200 18005KT P6SM SCT120
     FM020400 19005KT P6SM VCSH BKN090
     FM020800 21004KT P6SM BKN090
     FM021400 28004KT P6SM BKN025=

USA.gov is the U.S. government's official web portal to all federal, state and local government web resources and services.